createdAt,value
2019-04-21T00:00:17.624Z,12.468872
2019-04-21T00:00:33.967Z,12.458801
2019-04-21T00:00:58.475Z,12.44873
2019-04-21T00:01:13.011Z,12.44873
2019-04-21T00:01:35.556Z,12.44873
2019-04-21T00:01:51.023Z,12.44873
2019-04-21T00:02:07.620Z,12.44873
2019-04-21T00:02:30.576Z,12.418518
2019-04-21T00:02:47.558Z,12.418518
2019-04-21T00:03:09.773Z,12.418518
2019-04-21T00:03:30.858Z,12.44873
2019-04-21T00:03:48.306Z,12.418518
2019-04-21T00:04:11.178Z,12.408447
2019-04-21T00:04:32.934Z,12.408447
2019-04-21T00:04:49.658Z,12.388306
2019-04-21T00:05:19.803Z,12.388306
2019-04-21T00:05:29.666Z,12.388306
2019-04-21T00:05:57.035Z,12.388306
2019-04-21T00:06:15.433Z,12.368164
2019-04-21T00:06:35.078Z,12.368164
2019-04-21T00:06:55.015Z,12.348022
2019-04-21T00:07:13.003Z,12.337952
2019-04-21T00:07:30.918Z,12.368164
2019-04-21T00:07:50.186Z,12.348022
2019-04-21T00:08:17.816Z,12.368164
2019-04-21T00:08:41.248Z,12.348022
2019-04-21T00:08:48.202Z,12.348022
2019-04-21T00:09:10.845Z,12.348022
2019-04-21T00:09:24.013Z,12.348022
2019-04-21T00:09:45.294Z,12.31781
2019-04-21T00:10:05.652Z,12.31781
2019-04-21T00:10:26.761Z,12.307739
2019-04-21T00:10:39.746Z,12.307739
2019-04-21T00:11:02.558Z,12.337952
2019-04-21T00:11:21.812Z,12.31781
2019-04-21T00:11:40.646Z,12.31781
2019-04-21T00:11:55.118Z,12.337952
2019-04-21T00:12:28.142Z,12.31781
2019-04-21T00:12:51.453Z,12.307739
2019-04-21T00:13:07.641Z,12.307739
2019-04-21T00:13:26.433Z,12.287598
2019-04-21T00:13:46.563Z,12.277527
2019-04-21T00:14:00.826Z,12.267456
2019-04-21T00:14:21.651Z,12.237244
2019-04-21T00:14:38.021Z,12.267456
2019-04-21T00:14:57.728Z,12.277527
2019-04-21T00:15:16.636Z,12.267456
2019-04-21T00:15:32.750Z,12.267456
2019-04-21T00:15:51.989Z,12.237244
2019-04-21T00:16:09.135Z,12.207031
2019-04-21T00:16:34.521Z,12.227173
2019-04-21T00:16:50.856Z,12.227173
2019-04-21T00:17:07.673Z,12.237244
2019-04-21T00:17:23.059Z,12.237244
2019-04-21T00:17:43.479Z,12.237244
2019-04-21T00:18:02.367Z,12.207031
2019-04-21T00:18:17.882Z,12.227173
2019-04-21T00:18:44.508Z,12.227173
2019-04-21T00:19:02.915Z,12.207031
2019-04-21T00:19:19.421Z,12.207031
2019-04-21T00:19:35.648Z,12.227173
2019-04-21T00:20:05.400Z,12.207031
2019-04-21T00:20:20.238Z,12.19696
2019-04-21T00:20:37.990Z,12.19696
2019-04-21T00:20:53.301Z,12.19696
2019-04-21T00:21:18.180Z,12.19696
2019-04-21T00:21:36.317Z,12.207031
2019-04-21T00:21:53.051Z,12.227173
2019-04-21T00:22:19.023Z,12.227173
2019-04-21T00:22:37.518Z,12.227173
2019-04-21T00:22:55.853Z,12.207031
2019-04-21T00:23:21.278Z,12.227173
2019-04-21T00:23:40.992Z,12.227173
2019-04-21T00:24:11.957Z,12.207031
2019-04-21T00:24:33.511Z,12.227173
2019-04-21T00:24:48.648Z,12.19696
2019-04-21T00:25:13.800Z,12.19696
2019-04-21T00:25:30.819Z,12.18689
2019-04-21T00:25:47.768Z,12.18689
2019-04-21T00:26:02.743Z,12.18689
2019-04-21T00:26:27.716Z,12.18689
2019-04-21T00:26:47.983Z,12.18689
2019-04-21T00:27:09.539Z,12.18689
2019-04-21T00:27:27.889Z,12.19696
2019-04-21T00:27:46.296Z,12.18689
2019-04-21T00:28:06.426Z,12.18689
2019-04-21T00:28:30.173Z,12.166748
2019-04-21T00:28:48.815Z,12.166748
2019-04-21T00:29:08.950Z,12.166748
2019-04-21T00:29:42.371Z,12.156677
2019-04-21T00:30:03.134Z,12.136536
2019-04-21T00:30:21.203Z,12.136536
2019-04-21T00:30:39.460Z,12.136536
2019-04-21T00:30:55.366Z,12.136536
2019-04-21T00:31:14.913Z,12.136536
2019-04-21T00:31:33.469Z,12.136536
2019-04-21T00:31:51.059Z,12.156677
2019-04-21T00:32:09.866Z,12.136536
2019-04-21T00:32:27.806Z,12.126465
2019-04-21T00:32:44.891Z,12.116394
2019-04-21T00:32:59.632Z,12.126465
2019-04-21T00:33:17.493Z,12.126465
2019-04-21T00:33:34.166Z,12.136536
2019-04-21T00:33:50.056Z,12.136536
2019-04-21T00:34:07.759Z,12.126465
2019-04-21T00:34:26.717Z,12.116394
2019-04-21T00:34:50.888Z,12.126465
2019-04-21T00:35:09.881Z,12.116394
2019-04-21T00:35:26.417Z,12.116394
2019-04-21T00:35:51.016Z,12.126465
2019-04-21T00:36:10.096Z,12.096252
2019-04-21T00:36:25.875Z,12.116394
2019-04-21T00:36:50.171Z,12.116394
2019-04-21T00:37:09.051Z,12.096252
2019-04-21T00:37:26.450Z,12.086182
2019-04-21T00:37:53.030Z,12.086182
2019-04-21T00:38:16.797Z,12.086182
2019-04-21T00:38:37.159Z,12.086182
2019-04-21T00:39:06.485Z,12.06604
2019-04-21T00:39:20.514Z,12.045898
2019-04-21T00:39:43.192Z,12.045898
2019-04-21T00:40:09.039Z,12.035828
2019-04-21T00:40:09.041Z,12.035828
2019-04-21T00:40:27.028Z,12.015686
2019-04-21T00:40:47.672Z,12.035828
2019-04-21T00:41:05.290Z,12.005615
2019-04-21T00:41:29.257Z,12.005615
2019-04-21T00:41:43.217Z,12.005615
2019-04-21T00:41:58.787Z,11.975403
2019-04-21T00:42:22.568Z,11.975403
2019-04-21T00:42:38.422Z,11.975403
2019-04-21T00:42:59.782Z,11.955261
2019-04-21T00:43:14.573Z,11.94519
2019-04-21T00:43:32.757Z,11.93512
2019-04-21T00:43:52.954Z,11.93512
2019-04-21T00:44:08.338Z,11.914978
2019-04-21T00:44:26.756Z,11.914978
2019-04-21T00:44:51.850Z,11.904907
2019-04-21T00:45:07.787Z,11.884766
2019-04-21T00:45:27.337Z,11.884766
2019-04-21T00:45:44.294Z,11.834412
2019-04-21T00:45:59.661Z,11.854553
2019-04-21T00:46:26.203Z,11.834412
2019-04-21T00:46:43.513Z,11.824341
2019-04-21T00:47:01.687Z,11.834412
2019-04-21T00:47:30.156Z,11.824341
2019-04-21T00:47:38.509Z,11.794128
2019-04-21T00:48:03.644Z,11.794128
2019-04-21T00:48:16.393Z,11.804199
2019-04-21T00:48:40.731Z,11.794128
2019-04-21T00:49:15.080Z,11.804199
2019-04-21T00:49:35.359Z,11.794128
2019-04-21T00:49:59.924Z,11.794128
2019-04-21T00:50:17.552Z,11.794128
2019-04-21T00:50:40.043Z,11.794128
2019-04-21T00:51:09.576Z,11.794128
2019-04-21T00:51:45.463Z,11.784058
2019-04-21T00:52:01.819Z,11.784058
2019-04-21T00:52:20.703Z,11.784058
2019-04-21T00:52:44.991Z,11.784058
2019-04-21T00:52:56.133Z,11.763916
2019-04-21T00:53:10.177Z,11.763916
2019-04-21T00:53:35.230Z,11.763916
2019-04-21T00:53:57.732Z,11.763916
2019-04-21T00:54:08.693Z,11.763916
2019-04-21T00:54:32.608Z,11.763916
2019-04-21T00:54:47.971Z,11.753845
2019-04-21T00:55:13.848Z,11.753845
2019-04-21T00:55:38.353Z,11.753845
2019-04-21T00:55:44.226Z,11.753845
2019-04-21T00:56:03.113Z,11.753845
2019-04-21T00:56:21.086Z,11.733704
2019-04-21T00:56:39.308Z,11.703491
2019-04-21T00:57:02.468Z,11.703491
2019-04-21T00:57:16.224Z,11.703491
2019-04-21T00:57:38.599Z,11.673279
2019-04-21T00:57:55.843Z,11.673279
2019-04-21T00:58:17.037Z,11.673279
2019-04-21T00:58:32.967Z,11.653137
2019-04-21T00:58:52.989Z,11.653137
2019-04-21T00:59:13.465Z,11.643066
2019-04-21T00:59:31.445Z,11.653137
2019-04-21T00:59:49.851Z,11.653137
2019-04-21T01:00:11.485Z,11.643066
2019-04-21T01:00:26.868Z,11.643066
2019-04-21T01:00:45.663Z,11.643066
2019-04-21T01:01:01.405Z,11.622925
2019-04-21T01:01:24.688Z,11.643066
2019-04-21T01:01:43.377Z,11.622925
2019-04-21T01:01:59.565Z,11.622925
2019-04-21T01:02:15.287Z,11.612854
2019-04-21T01:02:44.334Z,11.612854
2019-04-21T01:03:00.744Z,11.612854
2019-04-21T01:03:20.000Z,11.612854
2019-04-21T01:03:37.088Z,11.612854
2019-04-21T01:03:57.334Z,11.612854
2019-04-21T01:04:15.122Z,11.612854
2019-04-21T01:04:36.693Z,11.602783
2019-04-21T01:04:49.287Z,11.582642
2019-04-21T01:05:16.320Z,11.612854
2019-04-21T01:05:35.063Z,11.612854
2019-04-21T01:05:55.897Z,11.602783
2019-04-21T01:06:09.589Z,11.582642
2019-04-21T01:06:28.501Z,11.612854
2019-04-21T01:06:47.773Z,11.612854
2019-04-21T01:07:07.031Z,11.612854
2019-04-21T01:07:26.415Z,11.612854
2019-04-21T01:07:57.599Z,11.602783
2019-04-21T01:08:04.528Z,11.582642
2019-04-21T01:08:19.715Z,11.602783
2019-04-21T01:08:40.881Z,11.602783
2019-04-21T01:08:58.898Z,11.582642
2019-04-21T01:09:13.366Z,11.602783
2019-04-21T01:09:31.550Z,11.582642
2019-04-21T01:09:52.403Z,11.582642
2019-04-21T01:10:08.999Z,11.582642
2019-04-21T01:10:28.339Z,11.582642
2019-04-21T01:10:45.732Z,11.602783
2019-04-21T01:11:17.713Z,11.602783
2019-04-21T01:11:31.059Z,11.582642
2019-04-21T01:11:54.873Z,11.582642
2019-04-21T01:12:12.098Z,11.582642
2019-04-21T01:12:32.946Z,11.572571
2019-04-21T01:12:47.510Z,11.582642
2019-04-21T01:13:15.770Z,11.582642
2019-04-21T01:13:31.929Z,11.582642
2019-04-21T01:13:51.519Z,11.582642
2019-04-21T01:14:03.923Z,11.572571
2019-04-21T01:14:19.754Z,11.572571
2019-04-21T01:14:48.270Z,11.552429
2019-04-21T01:15:08.981Z,11.552429
2019-04-21T01:15:30.427Z,11.542358
2019-04-21T01:16:05.394Z,11.522217
2019-04-21T01:16:20.142Z,11.512146
2019-04-21T01:16:38.809Z,11.512146
2019-04-21T01:16:57.209Z,11.492004
2019-04-21T01:17:12.728Z,11.492004
2019-04-21T01:17:35.072Z,11.492004
2019-04-21T01:17:55.844Z,11.492004
2019-04-21T01:18:16.119Z,11.471863
2019-04-21T01:18:32.264Z,11.471863
2019-04-21T01:18:49.112Z,11.471863
2019-04-21T01:19:10.359Z,11.461792
2019-04-21T01:19:24.933Z,11.44165
2019-04-21T01:19:43.718Z,11.461792
2019-04-21T01:20:01.014Z,11.44165
2019-04-21T01:22:58.938Z,11.44165
2019-04-21T01:23:17.932Z,11.43158
2019-04-21T01:23:36.850Z,11.421509
2019-04-21T01:24:02.874Z,11.421509
2019-04-21T01:24:21.514Z,11.421509
2019-04-21T01:24:38.254Z,11.421509
2019-04-21T01:24:59.946Z,11.421509
2019-04-21T01:25:19.755Z,11.421509
2019-04-21T01:25:38.071Z,11.421509
2019-04-21T01:26:00.444Z,11.421509
2019-04-21T01:26:22.451Z,11.421509
2019-04-21T01:26:38.939Z,11.421509
2019-04-21T01:26:56.655Z,11.421509
2019-04-21T01:27:14.476Z,11.421509
2019-04-21T01:27:45.516Z,11.421509
2019-04-21T01:27:58.625Z,11.421509
2019-04-21T01:28:18.497Z,11.421509
2019-04-21T01:28:39.688Z,11.401367
2019-04-21T01:28:55.549Z,11.421509
2019-04-21T01:29:15.338Z,11.401367
2019-04-21T01:29:41.275Z,11.401367
2019-04-21T01:29:59.577Z,11.391296
2019-04-21T01:30:16.163Z,11.391296
2019-04-21T01:30:34.032Z,11.371155
2019-04-21T01:30:51.636Z,11.371155
2019-04-21T01:31:08.580Z,11.361084
2019-04-21T01:31:28.056Z,11.371155
2019-04-21T01:31:47.885Z,11.361084
2019-04-21T01:32:10.090Z,11.361084
2019-04-21T01:32:29.100Z,11.351013
2019-04-21T01:32:48.012Z,11.361084
2019-04-21T01:33:07.049Z,11.361084
2019-04-21T01:33:25.828Z,11.361084
2019-04-21T01:33:44.206Z,11.361084
2019-04-21T01:34:02.472Z,11.361084
2019-04-21T01:34:20.332Z,11.351013
2019-04-21T01:34:38.785Z,11.351013
2019-04-21T01:35:02.219Z,11.330872
2019-04-21T01:35:20.557Z,11.330872
2019-04-21T01:35:39.232Z,11.330872
2019-04-21T01:35:53.524Z,11.330872
2019-04-21T01:36:13.882Z,11.330872
2019-04-21T01:36:34.496Z,11.330872
2019-04-21T01:36:49.643Z,11.351013
2019-04-21T01:37:10.001Z,11.351013
2019-04-21T01:37:39.750Z,11.330872
2019-04-21T01:38:06.328Z,11.320801
2019-04-21T01:38:13.689Z,11.330872
2019-04-21T01:38:34.077Z,11.320801
2019-04-21T01:39:05.105Z,11.290588
2019-04-21T01:39:12.960Z,11.290588
2019-04-21T01:39:26.921Z,11.290588
2019-04-21T01:39:46.792Z,11.290588
2019-04-21T01:40:08.322Z,11.270447
2019-04-21T01:40:28.639Z,11.280518
2019-04-21T01:40:58.911Z,11.290588
2019-04-21T01:41:06.812Z,11.280518
2019-04-21T01:41:25.303Z,11.290588
2019-04-21T01:41:38.748Z,11.290588
2019-04-21T01:41:56.870Z,11.270447
2019-04-21T01:42:15.583Z,11.270447
2019-04-21T01:42:37.969Z,11.270447
2019-04-21T01:42:55.482Z,11.270447
2019-04-21T01:43:13.235Z,11.270447
2019-04-21T01:43:33.158Z,11.250305
2019-04-21T01:43:48.672Z,11.240234
2019-04-21T01:44:12.002Z,11.220093
2019-04-21T01:44:35.894Z,11.210022
2019-04-21T01:44:52.124Z,11.18988
2019-04-21T01:45:09.126Z,11.17981
2019-04-21T01:45:26.129Z,11.18988
2019-04-21T01:45:43.308Z,11.18988
2019-04-21T01:46:05.289Z,11.210022
2019-04-21T01:46:19.035Z,11.18988
2019-04-21T01:46:39.101Z,11.210022
2019-04-21T01:46:58.077Z,11.220093
2019-04-21T01:47:15.696Z,11.210022
2019-04-21T01:47:40.372Z,11.220093
2019-04-21T01:47:55.836Z,11.220093
2019-04-21T01:48:14.715Z,11.220093
2019-04-21T01:48:34.029Z,11.240234
2019-04-21T01:48:52.407Z,11.240234
2019-04-21T01:49:07.637Z,11.240234
2019-04-21T01:49:26.278Z,11.220093
2019-04-21T01:49:42.907Z,11.240234
2019-04-21T01:50:02.330Z,11.240234
2019-04-21T01:50:28.789Z,11.240234
2019-04-21T01:50:46.155Z,11.220093
2019-04-21T01:51:04.960Z,11.220093
2019-04-21T01:51:21.971Z,11.210022
2019-04-21T01:51:50.437Z,11.210022
2019-04-21T01:52:17.440Z,11.18988
2019-04-21T01:52:29.799Z,11.17981
2019-04-21T01:52:49.718Z,11.17981
2019-04-21T01:53:01.807Z,11.169739
2019-04-21T01:53:23.753Z,11.149597
2019-04-21T01:53:42.079Z,11.139526
2019-04-21T01:54:03.137Z,11.149597
2019-04-21T01:54:21.586Z,11.139526
2019-04-21T01:54:40.213Z,11.149597
2019-04-21T01:55:00.026Z,11.139526
2019-04-21T01:55:17.553Z,11.139526
2019-04-21T01:55:35.423Z,11.109314
2019-04-21T01:55:53.946Z,11.109314
2019-04-21T01:56:16.688Z,11.099243
2019-04-21T01:56:33.722Z,11.089172
2019-04-21T01:56:50.890Z,11.05896
2019-04-21T01:57:07.138Z,11.069031
2019-04-21T01:57:29.253Z,11.069031
2019-04-21T01:57:42.341Z,11.069031
2019-04-21T01:58:01.249Z,11.05896
2019-04-21T01:58:18.104Z,11.05896
2019-04-21T01:58:38.668Z,11.038818
2019-04-21T01:58:56.084Z,11.038818
2019-04-21T01:59:12.646Z,11.05896
2019-04-21T01:59:34.727Z,11.05896
2019-04-21T01:59:54.800Z,11.028748
2019-04-21T02:00:12.923Z,11.038818
2019-04-21T02:00:37.733Z,11.028748
2019-04-21T02:00:56.351Z,11.028748
2019-04-21T02:01:13.246Z,11.028748
2019-04-21T02:01:38.413Z,11.018677
2019-04-21T02:02:00.013Z,11.018677
2019-04-21T02:02:16.897Z,11.018677
2019-04-21T02:02:34.661Z,10.998535
2019-04-21T02:02:58.874Z,10.998535
2019-04-21T02:03:20.857Z,10.968323
2019-04-21T02:03:46.474Z,10.988464
2019-04-21T02:04:13.646Z,10.988464
2019-04-21T02:04:13.647Z,10.968323
2019-04-21T02:04:35.842Z,10.988464
2019-04-21T02:04:55.617Z,10.968323
2019-04-21T02:05:09.951Z,10.988464
2019-04-21T02:05:30.968Z,10.968323
2019-04-21T02:05:50.880Z,10.988464
2019-04-21T02:06:10.712Z,10.958252
2019-04-21T02:06:26.931Z,10.988464
2019-04-21T02:06:43.942Z,10.958252
2019-04-21T02:07:02.631Z,10.958252
2019-04-21T02:07:20.176Z,10.958252
2019-04-21T02:07:38.787Z,10.968323
2019-04-21T02:07:54.507Z,10.958252
2019-04-21T02:08:14.626Z,10.958252
2019-04-21T02:08:35.837Z,10.93811
2019-04-21T02:08:53.094Z,10.917969
2019-04-21T02:09:09.557Z,10.917969
2019-04-21T02:09:30.621Z,10.907898
2019-04-21T02:09:56.645Z,10.907898
2019-04-21T02:10:17.462Z,10.887756
2019-04-21T02:10:26.478Z,10.877686
2019-04-21T02:10:54.397Z,10.857544
2019-04-21T02:11:11.017Z,10.847473
2019-04-21T02:11:29.799Z,10.837402
2019-04-21T02:11:50.065Z,10.817261
2019-04-21T02:12:08.514Z,10.837402
2019-04-21T02:12:25.104Z,10.837402
2019-04-21T02:12:44.202Z,10.817261
2019-04-21T02:13:03.057Z,10.817261
2019-04-21T02:13:16.761Z,10.80719
2019-04-21T02:13:46.509Z,10.80719
2019-04-21T02:14:03.707Z,10.787048
2019-04-21T02:14:22.352Z,10.80719
2019-04-21T02:14:45.273Z,10.80719
2019-04-21T02:15:16.452Z,10.80719
2019-04-21T02:15:23.316Z,10.787048
2019-04-21T02:15:41.821Z,10.776978
2019-04-21T02:16:00.441Z,10.776978
2019-04-21T02:16:11.093Z,10.756836
2019-04-21T02:16:33.839Z,10.787048
2019-04-21T02:16:51.877Z,10.776978
2019-04-21T02:17:13.131Z,10.776978
2019-04-21T02:17:27.567Z,10.776978
2019-04-21T02:17:46.793Z,10.756836
2019-04-21T02:18:05.886Z,10.776978
2019-04-21T02:18:27.109Z,10.776978
2019-04-21T02:18:43.406Z,10.776978
2019-04-21T02:18:57.944Z,10.756836
2019-04-21T02:19:16.405Z,10.756836
2019-04-21T02:19:35.738Z,10.756836
2019-04-21T02:19:54.986Z,10.736694
2019-04-21T02:20:11.656Z,10.736694
2019-04-21T02:20:31.595Z,10.736694
2019-04-21T02:20:48.037Z,10.736694
2019-04-21T02:21:06.988Z,10.706482
2019-04-21T02:21:31.242Z,10.726624
2019-04-21T02:21:47.109Z,10.706482
2019-04-21T02:22:07.892Z,10.726624
2019-04-21T02:22:45.792Z,10.706482
2019-04-21T02:23:17.494Z,10.706482
2019-04-21T02:23:26.158Z,10.706482
2019-04-21T02:23:37.652Z,10.726624
2019-04-21T02:23:53.686Z,10.706482
2019-04-21T02:24:11.252Z,10.706482
2019-04-21T02:24:34.717Z,10.696411
2019-04-21T02:24:49.187Z,10.706482
2019-04-21T02:25:08.106Z,10.696411
2019-04-21T02:25:25.669Z,10.696411
2019-04-21T02:25:44.047Z,10.67627
2019-04-21T02:26:03.109Z,10.666199
2019-04-21T02:26:22.479Z,10.666199
2019-04-21T02:26:39.643Z,10.656128
2019-04-21T02:26:58.994Z,10.635986
2019-04-21T02:27:18.758Z,10.635986
2019-04-21T02:27:35.884Z,10.625916
2019-04-21T02:27:56.301Z,10.635986
2019-04-21T02:28:19.143Z,10.625916
2019-04-21T02:28:42.215Z,10.625916
2019-04-21T02:29:14.167Z,10.625916
2019-04-21T02:29:32.608Z,10.635986
2019-04-21T02:29:54.846Z,10.625916
2019-04-21T02:30:18.094Z,10.605774
2019-04-21T02:30:54.119Z,10.635986
2019-04-21T02:31:04.635Z,10.625916
2019-04-21T02:31:55.215Z,10.625916
2019-04-21T02:32:24.099Z,10.635986
2019-04-21T02:32:35.115Z,10.625916
2019-04-21T02:32:58.555Z,10.605774
2019-04-21T02:33:08.354Z,10.595703
2019-04-21T02:34:23.327Z,10.595703
2019-04-21T02:35:12.172Z,10.585632
2019-04-21T02:35:29.683Z,10.585632
2019-04-21T02:35:49.327Z,10.585632
2019-04-21T02:36:14.777Z,10.595703
2019-04-21T02:36:28.875Z,10.585632
2019-04-21T02:36:52.743Z,10.55542
2019-04-21T02:38:16.207Z,10.545349
2019-04-21T02:38:36.101Z,10.515137
2019-04-21T02:38:55.529Z,10.525208
2019-04-21T02:39:13.122Z,10.525208
2019-04-21T02:39:24.735Z,10.515137
2019-04-21T02:39:56.412Z,10.525208
2019-04-21T02:40:10.976Z,10.515137
2019-04-21T02:40:29.243Z,10.515137
2019-04-21T02:40:44.814Z,10.525208
2019-04-21T02:40:56.820Z,10.505066
2019-04-21T02:41:21.110Z,10.515137
2019-04-21T02:42:18.029Z,10.505066
2019-04-21T02:42:45.220Z,10.505066
2019-04-21T02:43:18.431Z,10.474854
2019-04-21T02:43:32.695Z,10.484924
2019-04-21T02:43:59.926Z,10.474854
2019-04-21T02:44:15.602Z,10.474854
2019-04-21T02:44:36.964Z,10.474854
2019-04-21T02:44:51.148Z,10.474854
2019-04-21T02:45:29.464Z,10.474854
2019-04-21T02:45:55.691Z,10.454712
2019-04-21T02:46:12.237Z,10.474854
2019-04-21T02:47:03.375Z,10.474854
2019-04-21T02:47:36.534Z,10.474854
2019-04-21T02:47:53.164Z,10.474854
2019-04-21T02:48:16.885Z,10.454712
2019-04-21T02:48:43.130Z,10.4245
2019-04-21T02:49:03.819Z,10.444641
2019-04-21T02:49:34.226Z,10.4245
2019-04-21T02:49:59.351Z,10.4245
2019-04-21T02:50:17.366Z,10.414429
2019-04-21T02:51:08.093Z,10.384216
2019-04-21T02:51:33.236Z,10.364075
2019-04-21T02:51:52.299Z,10.343933
2019-04-21T02:52:35.240Z,10.333862
2019-04-21T02:52:35.241Z,10.323792
2019-04-21T02:53:09.306Z,10.30365
2019-04-21T02:54:31.244Z,10.293579
2019-04-21T02:55:13.139Z,10.293579
2019-04-21T02:55:21.780Z,10.273438
2019-04-21T02:55:50.635Z,10.293579
2019-04-21T02:56:00.039Z,10.293579
2019-04-21T02:56:24.450Z,10.293579
2019-04-21T02:56:41.825Z,10.293579
2019-04-21T02:57:00.690Z,10.273438
2019-04-21T02:57:30.635Z,10.263367
2019-04-21T02:57:57.309Z,10.273438
2019-04-21T02:58:15.698Z,10.263367
2019-04-21T02:58:41.349Z,10.263367
2019-04-21T02:59:14.655Z,10.263367
2019-04-21T02:59:32.838Z,10.273438
2019-04-21T02:59:49.221Z,10.263367
2019-04-21T03:00:42.426Z,10.263367
2019-04-21T03:01:02.693Z,10.253296
2019-04-21T03:01:48.258Z,10.233154
2019-04-21T03:02:03.282Z,10.253296
2019-04-21T03:02:24.410Z,10.233154
2019-04-21T03:03:03.331Z,10.233154
2019-04-21T03:03:19.502Z,10.233154
2019-04-21T03:03:36.082Z,10.233154
2019-04-21T03:03:58.465Z,10.233154
2019-04-21T03:04:34.103Z,10.223083
2019-04-21T03:04:51.638Z,10.233154
2019-04-21T03:05:35.962Z,10.223083
2019-04-21T03:05:50.298Z,10.233154
2019-04-21T03:06:50.071Z,10.253296
2019-04-21T03:07:17.468Z,10.233154
2019-04-21T03:07:17.472Z,10.233154
2019-04-21T03:07:47.525Z,10.233154
2019-04-21T03:08:02.658Z,10.233154
2019-04-21T03:08:25.107Z,10.223083
2019-04-21T03:08:49.463Z,10.233154
2019-04-21T03:08:58.507Z,10.253296
2019-04-21T03:09:49.243Z,10.223083
2019-04-21T03:10:17.299Z,10.223083
2019-04-21T03:10:59.008Z,10.223083
2019-04-21T03:11:46.644Z,10.223083
2019-04-21T03:11:55.797Z,10.202942
2019-04-21T03:12:10.662Z,10.1828
2019-04-21T03:12:21.886Z,10.1828
2019-04-21T03:12:50.628Z,10.1828
2019-04-21T03:13:28.903Z,10.152588
2019-04-21T03:13:46.366Z,10.152588
2019-04-21T03:14:05.172Z,10.142517
2019-04-21T03:14:35.356Z,10.142517
2019-04-21T03:14:55.401Z,10.152588
2019-04-21T03:15:37.093Z,10.092163
2019-04-21T03:16:30.770Z,10.092163
2019-04-21T03:16:46.772Z,10.092163
2019-04-21T03:17:13.638Z,10.092163
2019-04-21T03:17:48.093Z,10.082092
2019-04-21T03:18:32.364Z,10.082092
2019-04-21T03:18:47.995Z,10.082092
2019-04-21T03:19:04.467Z,10.072021
2019-04-21T03:19:35.668Z,10.072021
2019-04-21T03:20:23.192Z,10.082092
2019-04-21T03:20:23.193Z,10.082092
2019-04-21T03:21:06.947Z,10.072021
2019-04-21T03:21:36.473Z,10.082092
2019-04-21T03:22:04.847Z,10.072021
2019-04-21T03:22:29.689Z,10.05188
2019-04-21T03:22:59.605Z,10.072021
2019-04-21T03:23:18.673Z,10.05188
2019-04-21T03:23:35.992Z,10.072021
2019-04-21T03:23:53.384Z,10.05188
2019-04-21T03:24:03.618Z,10.05188
2019-04-21T03:24:39.535Z,10.041809
2019-04-21T03:25:02.224Z,10.041809
2019-04-21T03:26:09.970Z,10.011597
2019-04-21T03:26:26.966Z,9.991455
2019-04-21T03:26:47.854Z,9.991455
2019-04-21T03:27:28.359Z,10.011597
2019-04-21T03:27:48.617Z,9.991455
2019-04-21T03:28:04.608Z,9.991455
2019-04-21T03:28:51.871Z,9.991455
2019-04-21T03:29:19.383Z,9.971313
2019-04-21T03:29:34.627Z,9.991455
2019-04-21T03:29:58.895Z,9.991455
2019-04-21T03:30:25.636Z,9.971313
2019-04-21T03:30:55.253Z,9.991455
2019-04-21T03:31:49.097Z,9.971313
2019-04-21T03:32:44.638Z,9.961243
2019-04-21T03:33:58.108Z,9.93103
2019-04-21T03:34:55.804Z,9.910889
2019-04-21T03:35:43.310Z,9.910889
2019-04-21T03:36:11.857Z,9.900818
2019-04-21T03:36:46.989Z,9.910889
2019-04-21T03:37:06.687Z,9.910889
2019-04-21T03:37:30.518Z,9.900818
2019-04-21T03:37:41.847Z,9.910889
2019-04-21T03:38:26.682Z,9.890747
2019-04-21T03:39:00.604Z,9.890747
2019-04-21T03:39:17.717Z,9.890747
2019-04-21T03:39:44.726Z,9.870605
2019-04-21T03:39:59.020Z,9.890747
2019-04-21T03:40:14.455Z,9.860535
2019-04-21T03:40:31.967Z,9.860535
2019-04-21T03:40:57.050Z,9.860535
2019-04-21T03:41:18.578Z,9.840393
2019-04-21T03:41:37.533Z,9.860535
2019-04-21T03:41:56.347Z,9.830322
2019-04-21T03:42:25.019Z,9.810181
2019-04-21T03:42:33.521Z,9.790039
2019-04-21T03:42:47.219Z,9.790039
2019-04-21T03:43:26.627Z,9.790039
2019-04-21T03:44:05.868Z,9.779968
2019-04-21T03:44:36.849Z,9.779968
2019-04-21T03:45:02.851Z,9.790039
2019-04-21T03:45:57.973Z,9.779968
2019-04-21T03:46:22.834Z,9.759827
2019-04-21T03:46:40.847Z,9.759827
2019-04-21T03:47:06.629Z,9.779968
2019-04-21T03:47:22.591Z,9.779968
2019-04-21T03:47:34.350Z,9.759827
2019-04-21T03:47:52.134Z,9.749756
2019-04-21T03:48:16.596Z,9.739685
2019-04-21T03:48:50.961Z,9.719543
2019-04-21T03:49:18.946Z,9.709473
2019-04-21T03:49:54.026Z,9.719543
2019-04-21T03:50:25.976Z,9.709473
2019-04-21T03:50:46.666Z,9.709473
2019-04-21T03:51:02.505Z,9.689331
2019-04-21T03:51:45.543Z,9.659119
2019-04-21T03:52:10.616Z,9.67926
2019-04-21T03:52:29.387Z,9.659119
2019-04-21T03:52:43.841Z,9.659119
2019-04-21T03:53:18.292Z,9.649048
2019-04-21T03:53:53.258Z,9.608765
2019-04-21T03:54:41.180Z,9.598694
2019-04-21T03:54:53.021Z,9.598694
2019-04-21T03:55:32.816Z,9.598694
2019-04-21T03:55:52.731Z,9.598694
2019-04-21T03:56:43.641Z,9.608765
2019-04-21T03:57:31.134Z,9.608765
2019-04-21T03:58:04.083Z,9.608765
2019-04-21T03:58:23.677Z,9.608765
2019-04-21T03:59:35.606Z,9.638977
2019-04-21T03:59:44.879Z,9.608765
2019-04-21T04:00:05.955Z,9.598694
2019-04-21T04:00:33.427Z,9.598694
2019-04-21T04:00:59.408Z,9.578552
2019-04-21T04:01:32.066Z,9.598694
2019-04-21T04:01:57.355Z,9.578552
2019-04-21T04:02:14.520Z,9.598694
2019-04-21T04:02:32.507Z,9.578552
2019-04-21T04:02:54.336Z,9.578552
2019-04-21T04:03:32.135Z,9.568481
2019-04-21T04:03:51.548Z,9.558411
2019-04-21T04:04:13.174Z,9.538269
2019-04-21T04:04:27.629Z,9.558411
2019-04-21T04:04:43.860Z,9.528198
2019-04-21T04:05:02.515Z,9.558411
2019-04-21T04:05:34.274Z,9.558411
2019-04-21T04:06:07.683Z,9.558411
2019-04-21T04:06:42.395Z,9.538269
2019-04-21T04:07:03.805Z,9.558411
2019-04-21T04:07:20.776Z,9.538269
2019-04-21T04:07:41.747Z,9.528198
2019-04-21T04:07:57.119Z,9.528198
2019-04-21T04:08:20.254Z,9.508057
2019-04-21T04:08:57.301Z,9.508057
2019-04-21T04:09:51.650Z,9.497986
2019-04-21T04:09:51.653Z,9.497986
2019-04-21T04:10:07.502Z,9.497986
2019-04-21T04:10:49.830Z,9.497986
2019-04-21T04:11:11.228Z,9.477844
2019-04-21T04:11:28.935Z,9.477844
2019-04-21T04:11:43.083Z,9.477844
2019-04-21T04:11:54.492Z,9.467773
2019-04-21T04:12:18.614Z,9.467773
2019-04-21T04:12:40.439Z,9.457703
2019-04-21T04:12:56.842Z,9.457703
2019-04-21T04:13:36.508Z,9.42749
2019-04-21T04:13:47.101Z,9.467773
2019-04-21T04:14:03.268Z,9.467773
2019-04-21T04:14:22.327Z,9.467773
2019-04-21T04:14:38.609Z,9.467773
2019-04-21T04:14:49.902Z,9.467773
2019-04-21T04:15:11.498Z,9.42749